Time;durP1;ratioP1;P1;durP2;ratioP2;P2;SDS_P1;SDS_P2;PMS_P1;PMS_P2;Temp;Humidity;BMP_temperature;BMP_pressure;BME280_temperature;BME280_humidity;BME280_pressure;Samples;Min_cycle;Max_cycle;Signal;HPM_P1;HPM_P2
2023/03/01 00:03:12;;;;;;;;;;;;;;;17.89;33.64;96167.38;10469910;28;2411;-54
2023/03/01 00:08:14;;;;;;;;;;;;;;;17.86;33.63;96163.44;10473976;28;1939;-52
2023/03/01 00:13:15;;;;;;;;;;;;;;;17.82;33.73;96162.34;10468745;28;2063;-52
2023/03/01 00:18:15;;;;;;;;;;;;;;;17.81;33.68;96159.97;10452108;28;1965;-52
2023/03/01 00:23:16;;;;;;;;;;;;;;;17.77;33.61;96148.38;10473638;28;1961;-55
2023/03/01 00:28:16;;;;;;;;;;;;;;;17.75;33.50;96159.13;10467306;28;2067;-51
2023/03/01 00:33:17;;;;;;;;;;;;;;;17.73;33.43;96149.91;10464820;28;2031;-53
2023/03/01 00:38:18;;;;;;;;;;;;;;;17.72;33.56;96150.97;10470617;28;2280;-53
2023/03/01 00:43:18;;;;;;;;;;;;;;;17.69;33.38;96139.13;10475695;28;2165;-51
2023/03/01 00:48:19;;;;;;;;;;;;;;;17.68;33.42;96142.78;10465623;28;2072;-52
2023/03/01 00:53:20;;;;;;;;;;;;;;;17.65;33.51;96132.78;10480392;28;2016;-54
2023/03/01 00:58:20;;;;;;;;;;;;;;;17.65;33.46;96132.00;10472379;28;2048;-54
2023/03/01 01:03:21;;;;;;;;;;;;;;;17.62;33.33;96122.78;10469503;28;2135;-52
2023/03/01 01:08:22;;;;;;;;;;;;;;;17.59;33.45;96117.25;10469642;28;2043;-54
2023/03/01 01:13:23;;;;;;;;;;;;;;;17.57;33.31;96114.88;10471563;28;2074;-54
2023/03/01 01:18:23;;;;;;;;;;;;;;;17.55;33.27;96109.09;10456378;28;1957;-50
2023/03/01 01:23:23;;;;;;;;;;;;;;;17.53;33.26;96103.31;10462889;28;2052;-54
2023/03/01 01:28:24;;;;;;;;;;;;;;;17.52;33.28;96095.66;10465142;28;2020;-53
2023/03/01 01:33:24;;;;;;;;;;;;;;;17.50;33.17;96088.06;10467102;28;2091;-54
2023/03/01 01:38:25;;;;;;;;;;;;;;;17.48;33.29;96084.84;10453242;28;2014;-53
2023/03/01 01:43:26;;;;;;;;;;;;;;;17.47;33.19;96087.72;10472903;28;2028;-53
2023/03/01 01:48:40;;;;;;;;;;;;;;;17.46;33.15;96071.22;10472235;28;1926;-53
2023/03/01 01:53:40;;;;;;;;;;;;;;;17.43;33.16;96076.16;10480663;28;3172;-53
2023/03/01 01:58:41;;;;;;;;;;;;;;;17.42;33.20;96069.31;10465936;28;1758;-52
2023/03/01 02:03:42;;;;;;;;;;;;;;;17.38;33.14;96062.97;10443317;28;1976;-51
2023/03/01 02:08:43;;;;;;;;;;;;;;;17.37;33.15;96062.19;10460001;28;2047;-52
2023/03/01 02:13:43;;;;;;;;;;;;;;;17.35;33.20;96053.00;10450147;28;2003;-53
2023/03/01 02:18:44;;;;;;;;;;;;;;;17.33;33.07;96058.47;10464903;28;2071;-53
2023/03/01 02:23:45;;;;;;;;;;;;;;;17.31;33.09;96052.69;10464913;28;2060;-53
2023/03/01 02:28:46;;;;;;;;;;;;;;;17.32;32.96;96049.03;10463874;28;2011;-54
2023/03/01 02:33:48;;;;;;;;;;;;;;;17.32;32.92;96049.03;10453271;28;2058;-51
2023/03/01 02:38:48;;;;;;;;;;;;;;;17.33;32.99;96047.22;10469935;28;2063;-52
2023/03/01 02:43:58;;;;;;;;;;;;;;;17.32;32.93;96043.00;10439679;28;2003;-53
2023/03/01 02:48:59;;;;;;;;;;;;;;;17.32;32.92;96030.69;10454482;28;1955;-53
2023/03/01 02:53:59;;;;;;;;;;;;;;;17.31;32.81;96034.34;10466571;28;2006;-53
2023/03/01 02:59:00;;;;;;;;;;;;;;;17.34;32.88;96030.44;10478993;28;1900;-53
2023/03/01 03:04:00;;;;;;;;;;;;;;;17.37;32.76;96030.75;10468842;28;1940;-52
2023/03/01 03:09:02;;;;;;;;;;;;;;;17.39;32.73;96028.69;10463195;28;2022;-51
2023/03/01 03:14:02;;;;;;;;;;;;;;;17.42;32.76;96035.25;10465109;28;2030;-54
2023/03/01 03:19:07;;;;;;;;;;;;;;;17.41;32.60;96042.34;10471581;28;1969;-52
2023/03/01 03:24:08;;;;;;;;;;;;;;;17.43;32.63;96035.03;10448589;28;2045;-53
2023/03/01 03:29:09;;;;;;;;;;;;;;;17.45;32.46;96035.56;10468736;28;2032;-50
2023/03/01 03:34:17;;;;;;;;;;;;;;;17.46;32.44;96029.28;10472240;28;2248;-52
2023/03/01 03:39:19;;;;;;;;;;;;;;;17.45;32.52;96022.47;10472868;28;1957;-55
2023/03/01 03:44:19;;;;;;;;;;;;;;;17.45;32.48;96022.47;10475394;28;1992;-54
2023/03/01 03:49:20;;;;;;;;;;;;;;;17.48;32.37;96026.41;10472999;28;1987;-51
2023/03/01 03:54:20;;;;;;;;;;;;;;;17.46;32.42;96023.22;10476285;28;2023;-53
2023/03/01 03:59:21;;;;;;;;;;;;;;;17.47;32.57;96022.22;10463815;28;2112;-53
2023/03/01 04:04:22;;;;;;;;;;;;;;;17.47;32.42;96004.66;10471058;28;2129;-53
2023/03/01 04:09:22;;;;;;;;;;;;;;;17.47;32.39;96006.47;10478823;28;1975;-53
2023/03/01 04:14:23;;;;;;;;;;;;;;;17.48;32.29;95995.75;10472770;28;2131;-50
2023/03/01 04:19:35;;;;;;;;;;;;;;;17.49;32.28;96001.78;10475756;28;2025;-54
2023/03/01 04:24:36;;;;;;;;;;;;;;;17.50;32.18;96003.38;10471478;28;2095;-52
2023/03/01 04:29:36;;;;;;;;;;;;;;;17.50;32.23;95998.16;10470732;28;1962;-52
2023/03/01 04:34:36;;;;;;;;;;;;;;;17.50;32.26;96001.56;10474182;28;1928;-53
2023/03/01 04:39:47;;;;;;;;;;;;;;;17.50;32.25;95998.94;10464234;28;2072;-52
2023/03/01 04:44:51;;;;;;;;;;;;;;;17.51;32.20;95997.91;10464640;28;1981;-53
2023/03/01 04:49:51;;;;;;;;;;;;;;;17.52;32.15;95996.06;10467078;28;1974;-54
2023/03/01 04:54:51;;;;;;;;;;;;;;;17.53;32.15;95993.22;10467105;28;1941;-54
2023/03/01 04:59:52;;;;;;;;;;;;;;;17.54;31.96;95996.59;10470348;28;2068;-51
2023/03/01 05:04:57;;;;;;;;;;;;;;;17.54;31.97;95992.16;10467253;28;2029;-52
2023/03/01 05:09:57;;;;;;;;;;;;;;;17.54;32.10;95989.53;10472557;28;2028;-54
2023/03/01 05:14:58;;;;;;;;;;;;;;;17.58;32.05;95988.00;10463657;28;2020;-53
2023/03/01 05:19:59;;;;;;;;;;;;;;;17.64;31.95;95984.38;10478422;28;1913;-54
2023/03/01 05:24:59;;;;;;;;;;;;;;;17.70;31.91;95977.38;10464755;28;1976;-52
2023/03/01 05:30:13;;;;;;;;;;;;;;;17.77;31.91;95980.56;10463228;28;1989;-50
2023/03/01 05:35:13;;;;;;;;;;;;;;;17.81;31.90;95984.28;10466967;28;1979;-55
2023/03/01 05:40:15;;;;;;;;;;;;;;;17.85;31.86;95975.66;10465484;28;2165;-53
2023/03/01 05:45:16;;;;;;;;;;;;;;;17.88;31.76;95974.38;10476239;28;2016;-53
2023/03/01 05:50:18;;;;;;;;;;;;;;;17.90;31.67;95977.53;10466728;28;1969;-48
2023/03/01 05:55:20;;;;;;;;;;;;;;;17.92;31.68;95970.22;10479188;28;2038;-51
2023/03/01 06:00:22;;;;;;;;;;;;;;;17.92;31.59;95972.84;10465156;28;2091;-52
2023/03/01 06:05:23;;;;;;;;;;;;;;;17.95;31.66;95979.41;10467594;28;1949;-51
2023/03/01 06:10:24;;;;;;;;;;;;;;;17.93;31.60;95984.88;10459347;28;2095;-54
2023/03/01 06:15:27;;;;;;;;;;;;;;;17.95;31.48;95990.66;10464325;28;2217;-53
2023/03/01 06:20:27;;;;;;;;;;;;;;;17.95;31.53;95988.06;10463292;28;2084;-53
2023/03/01 06:25:28;;;;;;;;;;;;;;;17.96;31.67;95988.84;10466207;28;2061;-50
2023/03/01 06:30:29;;;;;;;;;;;;;;;17.98;31.52;95994.63;10455377;28;1944;-51
2023/03/01 06:35:30;;;;;;;;;;;;;;;17.97;31.53;95995.69;10448995;28;1924;-54
2023/03/01 06:40:31;;;;;;;;;;;;;;;18.02;31.59;95996.50;10464590;28;2104;-51
2023/03/01 06:45:32;;;;;;;;;;;;;;;18.06;31.57;95999.41;10467113;28;1976;-55
2023/03/01 06:50:33;;;;;;;;;;;;;;;18.09;31.74;95996.31;10473470;28;1992;-53
2023/03/01 06:55:33;;;;;;;;;;;;;;;18.13;31.72;95990.31;10472939;28;2056;-50
2023/03/01 07:00:34;;;;;;;;;;;;;;;18.18;31.79;95985.06;10469625;28;1955;-49
2023/03/01 07:05:35;;;;;;;;;;;;;;;18.22;31.76;95990.59;10474546;28;2030;-53
2023/03/01 07:10:35;;;;;;;;;;;;;;;18.27;31.66;95998.53;10479706;28;1972;-50
2023/03/01 07:15:40;;;;;;;;;;;;;;;18.30;31.58;95990.16;10482081;28;2044;-52
2023/03/01 07:20:40;;;;;;;;;;;;;;;18.32;31.52;95990.69;10472807;28;2216;-50
2023/03/01 07:25:40;;;;;;;;;;;;;;;18.34;31.43;95978.88;10466644;28;1992;-54
2023/03/01 07:30:41;;;;;;;;;;;;;;;18.36;31.25;95976.78;10474497;28;1963;-51
2023/03/01 07:35:41;;;;;;;;;;;;;;;18.39;31.35;95971.03;10460088;28;2003;-51
2023/03/01 07:40:41;;;;;;;;;;;;;;;18.42;31.29;95964.50;10465286;28;2002;-50
2023/03/01 07:45:42;;;;;;;;;;;;;;;18.45;31.11;95964.00;10470667;28;1972;-52
2023/03/01 07:50:43;;;;;;;;;;;;;;;18.45;31.15;95959.56;10473888;28;1964;-53
2023/03/01 07:55:43;;;;;;;;;;;;;;;18.47;30.95;95967.16;10480664;28;1966;-50
2023/03/01 08:00:44;;;;;;;;;;;;;;;18.45;31.00;95954.31;10479157;28;1986;-52
2023/03/01 08:05:45;;;;;;;;;;;;;;;18.45;30.94;95961.38;10476830;28;1983;-52
2023/03/01 08:10:45;;;;;;;;;;;;;;;18.41;31.01;95963.72;10478972;28;1972;-50
2023/03/01 08:15:46;;;;;;;;;;;;;;;18.38;31.17;95958.19;10479920;28;1999;-51
2023/03/01 08:20:46;;;;;;;;;;;;;;;18.34;31.62;95957.13;10474101;28;2058;-53
2023/03/01 08:25:47;;;;;;;;;;;;;;;18.30;31.55;95950.78;10485431;28;1988;-51
2023/03/01 08:30:47;;;;;;;;;;;;;;;18.26;31.54;95957.59;10474228;28;1991;-53
2023/03/01 08:35:47;;;;;;;;;;;;;;;18.21;31.40;95950.47;10469622;28;2127;-51
2023/03/01 08:40:48;;;;;;;;;;;;;;;18.17;31.30;95951.22;10475153;28;2019;-52
2023/03/01 08:45:49;;;;;;;;;;;;;;;18.12;31.43;95943.31;10449681;28;2063;-53
2023/03/01 08:50:50;;;;;;;;;;;;;;;18.05;31.46;95935.69;10474102;28;1927;-52
2023/03/01 08:55:51;;;;;;;;;;;;;;;18.05;31.39;95937.50;10468331;28;1989;-53
2023/03/01 09:00:52;;;;;;;;;;;;;;;18.05;31.35;95938.31;10473223;28;2045;-53
2023/03/01 09:05:52;;;;;;;;;;;;;;;18.10;31.41;95934.91;10480514;28;1923;-52
2023/03/01 09:10:53;;;;;;;;;;;;;;;18.15;31.34;95932.34;10479905;28;1956;-52
2023/03/01 09:15:54;;;;;;;;;;;;;;;18.19;31.23;95933.41;10470896;28;1972;-52
2023/03/01 09:21:07;;;;;;;;;;;;;;;18.24;31.18;95936.03;10449480;28;2002;-51
2023/03/01 09:26:08;;;;;;;;;;;;;;;18.27;31.18;95931.09;10466271;28;1981;-52
2023/03/01 09:31:12;;;;;;;;;;;;;;;18.33;30.92;95935.31;10462826;28;2006;-53
2023/03/01 09:36:13;;;;;;;;;;;;;;;18.39;30.94;95923.00;10472307;28;1916;-52
2023/03/01 09:41:17;;;;;;;;;;;;;;;18.42;31.05;95922.50;10466703;28;1955;-53
2023/03/01 09:46:17;;;;;;;;;;;;;;;18.43;31.08;95924.06;10467552;28;1978;-53
2023/03/01 09:51:19;;;;;;;;;;;;;;;18.46;31.06;95916.53;10471004;28;1980;-51
2023/03/01 09:56:21;;;;;;;;;;;;;;;18.48;31.05;95911.03;10455801;28;1936;-52
2023/03/01 10:01:25;;;;;;;;;;;;;;;18.48;30.97;95909.19;10452518;28;1959;-53
2023/03/01 10:06:26;;;;;;;;;;;;;;;18.48;31.04;95911.81;10481389;28;2121;-53
2023/03/01 10:11:28;;;;;;;;;;;;;;;18.48;31.05;95903.94;10470007;28;1991;-54
2023/03/01 10:16:28;;;;;;;;;;;;;;;18.48;30.97;95895.28;10461297;28;1940;-51
2023/03/01 10:21:31;;;;;;;;;;;;;;;18.47;31.01;95896.31;10466497;28;2003;-51
2023/03/01 10:26:38;;;;;;;;;;;;;;;18.46;31.16;95892.91;10465171;28;2012;-53
2023/03/01 10:31:42;;;;;;;;;;;;;;;18.46;31.15;95894.75;10449962;28;2292;-53
2023/03/01 10:36:43;;;;;;;;;;;;;;;18.47;31.02;95894.47;10468486;28;2016;-52
2023/03/01 10:41:52;;;;;;;;;;;;;;;18.49;31.19;95894.22;10462709;28;2056;-54
2023/03/01 10:46:59;;;;;;;;;;;;;;;18.53;31.19;95877.69;10471782;28;2027;-55
2023/03/01 10:52:18;;;;;;;;;;;;;;;18.58;31.20;95871.69;10465666;28;2038;-52
2023/03/01 10:57:28;;;;;;;;;;;;;;;18.62;31.25;95864.88;10462792;28;2102;-51
2023/03/01 11:02:29;;;;;;;;;;;;;;;18.66;31.31;95845.72;10468570;28;2055;-52
2023/03/01 11:07:29;;;;;;;;;;;;;;;18.70;31.24;95835.47;10467043;28;2068;-51
2023/03/01 11:12:29;;;;;;;;;;;;;;;18.74;31.24;95827.88;10468192;28;2101;-50
2023/03/01 11:17:31;;;;;;;;;;;;;;;18.74;31.32;95810.28;10448899;28;1998;-54
2023/03/01 11:22:31;;;;;;;;;;;;;;;18.77;31.48;95793.22;10460979;28;2039;-53
2023/03/01 11:27:32;;;;;;;;;;;;;;;18.79;31.42;95802.41;10464674;28;2039;-51
2023/03/01 11:32:39;;;;;;;;;;;;;;;18.80;31.58;95797.94;10470322;28;2016;-51
2023/03/01 11:37:41;;;;;;;;;;;;;;;18.81;31.57;95787.19;10455435;28;2092;-49
2023/03/01 11:42:56;;;;;;;;;;;;;;;18.81;31.72;95784.56;10478676;28;2003;-49
2023/03/01 11:48:03;;;;;;;;;;;;;;;18.84;31.66;95772.72;10476377;28;2002;-50
2023/03/01 11:53:09;;;;;;;;;;;;;;;18.87;31.71;95769.59;10459527;28;2057;-51
2023/03/01 11:58:19;;;;;;;;;;;;;;;18.91;31.69;95778.53;10457303;28;2157;-53
2023/03/01 12:03:30;;;;;;;;;;;;;;;18.91;31.66;95766.19;10470177;28;2073;-51
2023/03/01 12:08:45;;;;;;;;;;;;;;;18.94;31.76;95764.88;10462189;28;2202;-51
2023/03/01 12:13:58;;;;;;;;;;;;;;;18.96;31.85;95744.41;10446264;28;2096;-53
2023/03/01 12:18:59;;;;;;;;;;;;;;;18.96;31.80;95750.41;10473799;28;2050;-50
2023/03/01 12:24:22;;;;;;;;;;;;;;;19.00;31.89;95729.69;10470863;28;2090;-53
2023/03/01 12:29:27;;;;;;;;;;;;;;;19.02;31.99;95738.84;10446787;28;2034;-53
2023/03/01 12:34:47;;;;;;;;;;;;;;;19.02;31.94;95728.34;10473242;28;2030;-50
2023/03/01 12:39:51;;;;;;;;;;;;;;;19.03;32.00;95713.38;10471405;28;2066;-52
2023/03/01 12:45:04;;;;;;;;;;;;;;;19.05;31.97;95717.31;10475119;28;2067;-54
2023/03/01 12:50:17;;;;;;;;;;;;;;;19.04;32.19;95715.72;10469913;28;2333;-55
2023/03/01 12:55:20;;;;;;;;;;;;;;;19.07;32.11;95723.09;10458139;28;1977;-53
2023/03/01 13:00:37;;;;;;;;;;;;;;;19.13;32.33;95711.53;10469507;28;2031;-52
2023/03/01 13:05:47;;;;;;;;;;;;;;;19.17;32.15;95714.41;10466002;28;2153;-54
2023/03/01 13:10:52;;;;;;;;;;;;;;;19.21;32.23;95705.72;10476391;28;2042;-52
2023/03/01 13:15:53;;;;;;;;;;;;;;;19.26;32.23;95711.00;10469845;28;2195;-52
2023/03/01 13:20:54;;;;;;;;;;;;;;;19.30;32.35;95725.19;10469654;28;2140;-49
2023/03/01 13:25:58;;;;;;;;;;;;;;;19.35;32.19;95719.91;10431735;28;2000;-54
2023/03/01 13:30:58;;;;;;;;;;;;;;;19.39;32.19;95709.69;10474019;28;2038;-50
2023/03/01 13:35:59;;;;;;;;;;;;;;;19.44;32.21;95707.03;10464523;28;1973;-51
2023/03/01 13:41:00;;;;;;;;;;;;;;;19.44;32.17;95689.41;10472115;28;2124;-52
2023/03/01 13:46:07;;;;;;;;;;;;;;;19.50;32.22;95687.56;10466835;28;2006;-51
2023/03/01 13:51:08;;;;;;;;;;;;;;;19.51;32.36;95698.88;10455929;28;2057;-53
2023/03/01 13:56:10;;;;;;;;;;;;;;;19.54;32.13;95690.47;10468040;28;2107;-50
2023/03/01 14:01:25;;;;;;;;;;;;;;;19.54;31.97;95674.69;10462632;28;2132;-51
2023/03/01 14:06:30;;;;;;;;;;;;;;;19.61;31.94;95675.16;10476713;28;2529;-53
2023/03/01 14:11:30;;;;;;;;;;;;;;;19.67;32.20;95677.50;10465788;28;2043;-52
2023/03/01 14:16:46;;;;;;;;;;;;;;;19.78;31.93;95670.38;10473886;28;1965;-54
2023/03/01 14:21:46;;;;;;;;;;;;;;;19.83;32.08;95667.69;10468542;28;2158;-55
2023/03/01 14:26:48;;;;;;;;;;;;;;;19.86;31.88;95664.53;10470700;28;1996;-52
2023/03/01 14:31:49;;;;;;;;;;;;;;;19.89;31.99;95648.19;10454247;28;2019;-53
2023/03/01 14:36:49;;;;;;;;;;;;;;;19.89;32.04;95643.72;10467884;28;2039;-54
2023/03/01 14:41:49;;;;;;;;;;;;;;;19.91;32.01;95636.34;10460474;28;2055;-55
2023/03/01 14:46:56;;;;;;;;;;;;;;;19.96;32.23;95632.91;10466604;28;2070;-53
2023/03/01 14:52:00;;;;;;;;;;;;;;;19.99;32.01;95640.28;10463990;28;2043;-53
2023/03/01 14:57:00;;;;;;;;;;;;;;;20.01;32.00;95638.94;10465673;28;2027;-55
2023/03/01 15:02:01;;;;;;;;;;;;;;;20.04;31.91;95634.97;10465929;28;2058;-56
2023/03/01 15:07:04;;;;;;;;;;;;;;;20.07;31.83;95629.19;10487670;28;2035;-55
2023/03/01 15:12:24;;;;;;;;;;;;;;;20.06;31.84;95628.38;10461571;28;2018;-54
2023/03/01 15:17:34;;;;;;;;;;;;;;;20.08;31.69;95631.53;10475975;28;2134;-57
2023/03/01 15:22:34;;;;;;;;;;;;;;;20.08;32.00;95628.09;10457366;28;2149;-57
2023/03/01 15:27:36;;;;;;;;;;;;;;;20.09;31.73;95624.44;10469563;28;2087;-56
2023/03/01 15:32:39;;;;;;;;;;;;;;;20.08;32.11;95623.63;10454289;28;2073;-56
2023/03/01 15:37:43;;;;;;;;;;;;;;;20.07;31.90;95619.41;10452644;28;2127;-54
2023/03/01 15:42:44;;;;;;;;;;;;;;;20.06;32.16;95619.69;10472086;28;2464;-55
2023/03/01 15:47:48;;;;;;;;;;;;;;;20.04;32.25;95614.72;10472388;28;1991;-56
2023/03/01 15:52:49;;;;;;;;;;;;;;;20.02;32.62;95610.78;10461490;28;2053;-52
2023/03/01 15:57:50;;;;;;;;;;;;;;;20.03;32.66;95618.38;10460482;28;2134;-56
2023/03/01 16:02:50;;;;;;;;;;;;;;;20.02;32.22;95611.56;10470496;28;2064;-55
2023/03/01 16:07:50;;;;;;;;;;;;;;;20.03;31.93;95605.22;10469212;28;1987;-55
2023/03/01 16:12:52;;;;;;;;;;;;;;;20.01;32.05;95612.63;10469727;28;2030;-54
2023/03/01 16:17:52;;;;;;;;;;;;;;;20.00;32.50;95610.25;10468172;28;2078;-56
2023/03/01 16:22:52;;;;;;;;;;;;;;;19.99;32.33;95619.22;10476271;28;2059;-57
2023/03/01 16:27:53;;;;;;;;;;;;;;;19.99;32.49;95608.72;10474254;28;2074;-53
2023/03/01 16:32:53;;;;;;;;;;;;;;;19.96;32.72;95610.03;10468662;28;2138;-56
2023/03/01 16:37:54;;;;;;;;;;;;;;;19.98;32.07;95605.28;10458600;28;1997;-55
2023/03/01 16:42:59;;;;;;;;;;;;;;;19.96;32.57;95603.97;10471841;28;2094;-54
2023/03/01 16:48:00;;;;;;;;;;;;;;;19.94;32.71;95606.09;10478638;28;2083;-52
2023/03/01 16:53:00;;;;;;;;;;;;;;;19.93;32.45;95607.94;10470875;28;2035;-55
2023/03/01 16:58:01;;;;;;;;;;;;;;;19.92;32.40;95610.84;10471557;28;2028;-54
2023/03/01 17:03:01;;;;;;;;;;;;;;;19.91;32.72;95630.31;10480698;28;2065;-55
2023/03/01 17:08:01;;;;;;;;;;;;;;;19.98;32.45;95623.69;10471241;28;2086;-55
2023/03/01 17:13:02;;;;;;;;;;;;;;;19.94;32.80;95629.78;10471232;28;2002;-55
2023/03/01 17:18:02;;;;;;;;;;;;;;;19.91;33.12;95635.56;10480375;28;2030;-52
2023/03/01 17:23:03;;;;;;;;;;;;;;;19.88;32.92;95630.88;10471148;28;2197;-54
2023/03/01 17:28:03;;;;;;;;;;;;;;;19.86;32.77;95643.50;10451004;28;2062;-57
2023/03/01 17:33:03;;;;;;;;;;;;;;;19.83;32.78;95636.13;10476346;28;2000;-54
2023/03/01 17:38:04;;;;;;;;;;;;;;;19.79;32.82;95635.09;10468408;28;2246;-55
2023/03/01 17:43:06;;;;;;;;;;;;;;;19.77;32.63;95634.59;10469548;28;2042;-54
2023/03/01 17:48:06;;;;;;;;;;;;;;;19.76;32.40;95648.81;10469600;28;2087;-54
2023/03/01 17:53:08;;;;;;;;;;;;;;;19.73;32.73;95652.75;10467651;28;2018;-52
2023/03/01 17:58:21;;;;;;;;;;;;;;;19.77;33.06;95658.25;10477763;28;2012;-55
2023/03/01 18:03:22;;;;;;;;;;;;;;;19.75;33.08;95658.53;10473341;28;2068;-54
2023/03/01 18:08:22;;;;;;;;;;;;;;;19.76;32.86;95657.50;10468078;28;2079;-54
2023/03/01 18:13:24;;;;;;;;;;;;;;;19.79;33.23;95669.31;10475374;28;1984;-53
2023/03/01 18:18:24;;;;;;;;;;;;;;;19.82;33.17;95671.41;10467701;28;2064;-54
2023/03/01 18:23:24;;;;;;;;;;;;;;;19.85;33.51;95670.84;10470447;28;2068;-54
2023/03/01 18:28:25;;;;;;;;;;;;;;;19.93;33.84;95665.03;10466995;28;2091;-57
2023/03/01 18:33:26;;;;;;;;;;;;;;;20.02;34.42;95669.47;10475809;28;2026;-53
2023/03/01 18:38:27;;;;;;;;;;;;;;;20.08;33.84;95660.47;10474004;28;2089;-50
2023/03/01 18:43:28;;;;;;;;;;;;;;;20.09;33.96;95650.75;10465310;28;2079;-52
2023/03/01 18:48:30;;;;;;;;;;;;;;;20.13;33.30;95657.03;10467951;28;2055;-53
2023/03/01 18:53:30;;;;;;;;;;;;;;;20.17;33.23;95660.69;10473440;28;2052;-54
2023/03/01 18:58:31;;;;;;;;;;;;;;;20.17;33.30;95660.69;10480083;28;2073;-55
2023/03/01 19:03:32;;;;;;;;;;;;;;;20.15;32.94;95657.53;10482744;28;2107;-51
2023/03/01 19:08:32;;;;;;;;;;;;;;;20.17;32.90;95661.47;10479697;28;2046;-53
2023/03/01 19:13:33;;;;;;;;;;;;;;;20.19;32.57;95648.03;10478792;28;2131;-54
2023/03/01 19:18:34;;;;;;;;;;;;;;;20.23;32.84;95654.38;10476464;28;2084;-54
2023/03/01 19:23:34;;;;;;;;;;;;;;;20.20;32.83;95654.91;10459551;28;2054;-53
2023/03/01 19:28:35;;;;;;;;;;;;;;;20.18;32.35;95657.00;10476383;28;2038;-53
2023/03/01 19:33:35;;;;;;;;;;;;;;;20.17;32.85;95660.69;10478323;28;2039;-54
2023/03/01 19:38:35;;;;;;;;;;;;;;;20.21;33.31;95656.50;10483476;28;2057;-56
2023/03/01 19:43:36;;;;;;;;;;;;;;;20.22;33.58;95647.50;10476512;28;2056;-55
2023/03/01 19:48:39;;;;;;;;;;;;;;;20.23;33.18;95654.38;10475454;28;2026;-55
2023/03/01 19:53:39;;;;;;;;;;;;;;;20.22;33.44;95652.78;10478170;28;2001;-54
2023/03/01 19:58:49;;;;;;;;;;;;;;;20.21;33.19;95651.22;10479987;28;2019;-56
2023/03/01 20:03:50;;;;;;;;;;;;;;;20.21;32.96;95657.28;10478155;28;2016;-56
2023/03/01 20:08:50;;;;;;;;;;;;;;;20.21;33.08;95656.50;10474519;28;2128;-54
2023/03/01 20:13:54;;;;;;;;;;;;;;;20.19;33.10;95654.13;10475872;28;2024;-54
2023/03/01 20:18:56;;;;;;;;;;;;;;;20.18;33.06;95651.72;10471977;28;2113;-54
2023/03/01 20:23:56;;;;;;;;;;;;;;;20.16;33.01;95640.69;10479291;28;2062;-53
2023/03/01 20:28:56;;;;;;;;;;;;;;;20.13;32.58;95636.75;10455421;28;2031;-57
2023/03/01 20:33:58;;;;;;;;;;;;;;;20.08;33.02;95641.25;10458071;28;2040;-54
2023/03/01 20:38:58;;;;;;;;;;;;;;;20.07;32.88;95635.22;10474102;28;2077;-53
2023/03/01 20:43:59;;;;;;;;;;;;;;;20.10;33.80;95633.88;10465629;28;2143;-55
2023/03/01 20:48:59;;;;;;;;;;;;;;;20.09;33.98;95629.69;10475995;28;2044;-55
2023/03/01 20:54:00;;;;;;;;;;;;;;;20.06;33.98;95633.66;10468781;28;2027;-56
2023/03/01 20:59:04;;;;;;;;;;;;;;;20.04;33.99;95637.59;10475003;28;2154;-57
2023/03/01 21:04:04;;;;;;;;;;;;;;;20.00;33.76;95637.38;10473656;28;2058;-55
2023/03/01 21:09:05;;;;;;;;;;;;;;;19.97;33.51;95635.28;10457498;28;2090;-57
2023/03/01 21:14:05;;;;;;;;;;;;;;;19.94;33.74;95629.78;10468281;28;2131;-56
2023/03/01 21:19:06;;;;;;;;;;;;;;;19.89;33.63;95627.94;10459561;28;2226;-55
2023/03/01 21:24:09;;;;;;;;;;;;;;;19.87;33.62;95621.38;10457834;28;2042;-55
2023/03/01 21:29:09;;;;;;;;;;;;;;;19.83;33.72;95622.97;10471054;28;2016;-55
2023/03/01 21:34:12;;;;;;;;;;;;;;;19.81;33.57;95619.84;10467664;28;2011;-55
2023/03/01 21:39:13;;;;;;;;;;;;;;;19.77;33.54;95614.34;10471624;28;1961;-55
2023/03/01 21:44:14;;;;;;;;;;;;;;;19.75;33.48;95605.16;10463899;28;2336;-54
2023/03/01 21:49:14;;;;;;;;;;;;;;;19.73;33.32;95599.38;10457121;28;2050;-55
2023/03/01 21:54:15;;;;;;;;;;;;;;;19.70;33.26;95598.06;10465475;28;2034;-55
2023/03/01 21:59:23;;;;;;;;;;;;;;;19.69;33.47;95599.13;10481553;28;2111;-56
2023/03/01 22:04:24;;;;;;;;;;;;;;;19.66;33.29;95604.94;10467522;28;2345;-57
2023/03/01 22:09:24;;;;;;;;;;;;;;;19.64;33.28;95593.13;10468802;28;2002;-54
2023/03/01 22:14:25;;;;;;;;;;;;;;;19.62;33.30;95592.63;10456051;28;2154;-55
2023/03/01 22:19:27;;;;;;;;;;;;;;;19.61;33.27;95604.16;10462448;28;2050;-54
2023/03/01 22:24:37;;;;;;;;;;;;;;;19.58;33.33;95586.31;10470603;28;2007;-52
2023/03/01 22:29:37;;;;;;;;;;;;;;;19.57;33.11;95585.53;10471353;28;2048;-54
2023/03/01 22:34:38;;;;;;;;;;;;;;;19.55;33.09;95586.84;10469227;28;1989;-53
2023/03/01 22:39:38;;;;;;;;;;;;;;;19.53;32.93;95581.06;10473119;28;2029;-56
2023/03/01 22:44:38;;;;;;;;;;;;;;;19.51;33.06;95576.09;10465306;28;2163;-55
2023/03/01 22:49:38;;;;;;;;;;;;;;;19.49;33.14;95575.59;10470366;28;2034;-55
2023/03/01 22:54:39;;;;;;;;;;;;;;;19.45;33.13;95571.91;10466047;28;2201;-52
2023/03/01 22:59:40;;;;;;;;;;;;;;;19.44;32.91;95568.50;10471365;28;2028;-55
2023/03/01 23:04:41;;;;;;;;;;;;;;;19.42;32.93;95565.34;10469717;28;2049;-55
2023/03/01 23:09:42;;;;;;;;;;;;;;;19.41;33.14;95565.63;10468509;28;2084;-55
2023/03/01 23:14:42;;;;;;;;;;;;;;;19.38;32.84;95561.69;10467149;28;2114;-56
2023/03/01 23:19:43;;;;;;;;;;;;;;;19.36;33.13;95555.94;10471906;28;2175;-56
2023/03/01 23:24:43;;;;;;;;;;;;;;;19.35;32.95;95566.72;10458434;28;2095;-54
2023/03/01 23:29:43;;;;;;;;;;;;;;;19.34;33.01;95563.28;10471988;28;2491;-55
2023/03/01 23:34:44;;;;;;;;;;;;;;;19.32;32.82;95565.38;10475509;28;2025;-55
2023/03/01 23:39:44;;;;;;;;;;;;;;;19.30;32.74;95556.97;10456031;28;2045;-55
2023/03/01 23:44:45;;;;;;;;;;;;;;;19.29;32.73;95555.38;10482650;28;2060;-53
2023/03/01 23:49:45;;;;;;;;;;;;;;;19.27;32.76;95554.88;10483699;28;2055;-57
2023/03/01 23:54:46;;;;;;;;;;;;;;;19.25;32.81;95553.56;10460092;28;2034;-55
2023/03/01 23:59:46;;;;;;;;;;;;;;;19.23;32.67;95550.41;10473080;28;2047;-55
